Weather at Charlotte Douglas International Airport

Public forecast

Using degrees Fahrenheit for public forecast. Weather courtesy of forecast.io.

Current aviation weather report (METAR) for Charlotte Douglas International Airport

Retrieved 2021/10/26 07:52 UTC (53 minutes ago):

KCLT 260752Z 32005KT 10SM CLR 14/11 A2974 RMK AO2 SLP065 T01390111

Aviation forecast (TAF) for Charlotte Douglas International Airport

Forecast is more than 6 hours old.

Retrieved 2021-10-26 00:57 UTC (8 hours ago):

TAF KCLT 252355Z 2600/2706 26004KT P6SM SCT090 BKN250 TEMPO 2600/2601 29010G20KT 4SM SHRA BR FEW030 BKN050 FM260500 31009KT P6SM SCT250 FM261400 32012G20KT P6SM SKC FM270400 33007KT P6SM SKC